sensor_id;sensor_type;location;lat;lon;timestamp;P1;durP1;ratioP1;P2;durP2;ratioP2
20283;SDS011;10301;50.832;4.080;2023-06-14T00:00:40;9.18;;;6.55;;
20283;SDS011;10301;50.832;4.080;2023-06-14T00:03:06;10.23;;;6.20;;
20283;SDS011;10301;50.832;4.080;2023-06-14T00:05:34;12.32;;;6.20;;
20283;SDS011;10301;50.832;4.080;2023-06-14T00:08:05;11.50;;;5.78;;
20283;SDS011;10301;50.832;4.080;2023-06-14T00:10:37;9.40;;;6.30;;
20283;SDS011;10301;50.832;4.080;2023-06-14T00:13:05;10.07;;;6.32;;
20283;SDS011;10301;50.832;4.080;2023-06-14T00:15:32;8.73;;;6.25;;
20283;SDS011;10301;50.832;4.080;2023-06-14T00:17:58;8.35;;;5.90;;
20283;SDS011;10301;50.832;4.080;2023-06-14T00:20:27;12.35;;;6.28;;
20283;SDS011;10301;50.832;4.080;2023-06-14T00:22:54;12.93;;;6.80;;
20283;SDS011;10301;50.832;4.080;2023-06-14T00:25:21;8.98;;;6.22;;
20283;SDS011;10301;50.832;4.080;2023-06-14T00:27:48;8.90;;;6.43;;
20283;SDS011;10301;50.832;4.080;2023-06-14T00:30:14;8.88;;;6.25;;
20283;SDS011;10301;50.832;4.080;2023-06-14T00:32:40;11.95;;;6.25;;
20283;SDS011;10301;50.832;4.080;2023-06-14T00:35:07;11.23;;;6.00;;
20283;SDS011;10301;50.832;4.080;2023-06-14T00:37:34;11.75;;;6.57;;
20283;SDS011;10301;50.832;4.080;2023-06-14T00:40:00;9.90;;;6.35;;
20283;SDS011;10301;50.832;4.080;2023-06-14T00:42:26;13.85;;;6.57;;
20283;SDS011;10301;50.832;4.080;2023-06-14T00:44:52;11.27;;;6.82;;
20283;SDS011;10301;50.832;4.080;2023-06-14T00:47:19;14.07;;;6.68;;
20283;SDS011;10301;50.832;4.080;2023-06-14T00:49:45;11.02;;;6.20;;
20283;SDS011;10301;50.832;4.080;2023-06-14T00:52:13;9.27;;;6.50;;
20283;SDS011;10301;50.832;4.080;2023-06-14T00:54:42;10.05;;;6.75;;
20283;SDS011;10301;50.832;4.080;2023-06-14T00:57:08;9.45;;;6.43;;
20283;SDS011;10301;50.832;4.080;2023-06-14T00:59:36;13.13;;;6.72;;
20283;SDS011;10301;50.832;4.080;2023-06-14T01:02:07;12.30;;;6.47;;
20283;SDS011;10301;50.832;4.080;2023-06-14T01:04:33;11.07;;;6.50;;
20283;SDS011;10301;50.832;4.080;2023-06-14T01:07:02;10.80;;;6.40;;
20283;SDS011;10301;50.832;4.080;2023-06-14T01:15:21;10.18;;;6.47;;
20283;SDS011;10301;50.832;4.080;2023-06-14T01:17:49;11.80;;;6.80;;
20283;SDS011;10301;50.832;4.080;2023-06-14T01:20:16;12.48;;;6.70;;
20283;SDS011;10301;50.832;4.080;2023-06-14T01:22:51;11.32;;;6.28;;
20283;SDS011;10301;50.832;4.080;2023-06-14T01:25:21;13.90;;;7.20;;
20283;SDS011;10301;50.832;4.080;2023-06-14T01:27:58;14.60;;;6.82;;
20283;SDS011;10301;50.832;4.080;2023-06-14T01:30:27;11.35;;;6.72;;
20283;SDS011;10301;50.832;4.080;2023-06-14T01:32:55;11.82;;;6.57;;
20283;SDS011;10301;50.832;4.080;2023-06-14T01:35:23;10.88;;;6.80;;
20283;SDS011;10301;50.832;4.080;2023-06-14T01:37:49;10.10;;;6.95;;
20283;SDS011;10301;50.832;4.080;2023-06-14T01:40:17;11.55;;;7.28;;
20283;SDS011;10301;50.832;4.080;2023-06-14T01:42:44;15.02;;;7.07;;
20283;SDS011;10301;50.832;4.080;2023-06-14T01:45:11;12.00;;;6.70;;
20283;SDS011;10301;50.832;4.080;2023-06-14T01:47:37;10.35;;;6.85;;
20283;SDS011;10301;50.832;4.080;2023-06-14T01:50:04;10.73;;;7.28;;
20283;SDS011;10301;50.832;4.080;2023-06-14T01:52:30;12.68;;;7.10;;
20283;SDS011;10301;50.832;4.080;2023-06-14T01:54:56;9.80;;;7.18;;
20283;SDS011;10301;50.832;4.080;2023-06-14T01:57:23;13.10;;;7.57;;
20283;SDS011;10301;50.832;4.080;2023-06-14T01:59:50;12.43;;;7.40;;
20283;SDS011;10301;50.832;4.080;2023-06-14T02:02:16;11.88;;;6.97;;
20283;SDS011;10301;50.832;4.080;2023-06-14T02:04:41;13.20;;;6.90;;
20283;SDS011;10301;50.832;4.080;2023-06-14T02:07:07;17.63;;;7.30;;
20283;SDS011;10301;50.832;4.080;2023-06-14T02:09:33;10.80;;;7.05;;
20283;SDS011;10301;50.832;4.080;2023-06-14T02:12:00;13.07;;;7.50;;
20283;SDS011;10301;50.832;4.080;2023-06-14T02:14:26;10.73;;;7.85;;
20283;SDS011;10301;50.832;4.080;2023-06-14T02:16:52;14.32;;;7.32;;
20283;SDS011;10301;50.832;4.080;2023-06-14T02:19:18;13.57;;;7.55;;
20283;SDS011;10301;50.832;4.080;2023-06-14T02:21:44;12.63;;;7.75;;
20283;SDS011;10301;50.832;4.080;2023-06-14T02:24:10;12.25;;;7.80;;
20283;SDS011;10301;50.832;4.080;2023-06-14T02:26:36;17.00;;;8.20;;
20283;SDS011;10301;50.832;4.080;2023-06-14T02:29:06;12.10;;;7.90;;
20283;SDS011;10301;50.832;4.080;2023-06-14T02:31:35;10.57;;;7.32;;
20283;SDS011;10301;50.832;4.080;2023-06-14T02:34:01;12.55;;;8.27;;
20283;SDS011;10301;50.832;4.080;2023-06-14T02:36:27;12.85;;;8.13;;
20283;SDS011;10301;50.832;4.080;2023-06-14T02:38:54;14.00;;;7.93;;
20283;SDS011;10301;50.832;4.080;2023-06-14T02:41:22;12.05;;;7.82;;
20283;SDS011;10301;50.832;4.080;2023-06-14T02:43:48;16.00;;;8.45;;
20283;SDS011;10301;50.832;4.080;2023-06-14T02:46:14;11.48;;;7.85;;
20283;SDS011;10301;50.832;4.080;2023-06-14T02:48:40;13.00;;;8.23;;
20283;SDS011;10301;50.832;4.080;2023-06-14T02:51:05;12.23;;;8.52;;
20283;SDS011;10301;50.832;4.080;2023-06-14T02:53:33;13.93;;;7.95;;
20283;SDS011;10301;50.832;4.080;2023-06-14T02:55:59;13.43;;;8.10;;
20283;SDS011;10301;50.832;4.080;2023-06-14T02:58:26;12.60;;;8.07;;
20283;SDS011;10301;50.832;4.080;2023-06-14T03:00:52;11.95;;;8.45;;
20283;SDS011;10301;50.832;4.080;2023-06-14T03:03:18;11.43;;;8.45;;
20283;SDS011;10301;50.832;4.080;2023-06-14T03:05:44;13.70;;;7.75;;
20283;SDS011;10301;50.832;4.080;2023-06-14T03:08:13;13.98;;;8.73;;
20283;SDS011;10301;50.832;4.080;2023-06-14T03:10:42;18.90;;;8.82;;
20283;SDS011;10301;50.832;4.080;2023-06-14T03:13:08;12.75;;;8.65;;
20283;SDS011;10301;50.832;4.080;2023-06-14T03:15:35;14.75;;;8.95;;
20283;SDS011;10301;50.832;4.080;2023-06-14T03:18:01;15.55;;;9.50;;
20283;SDS011;10301;50.832;4.080;2023-06-14T03:20:28;14.38;;;8.70;;
20283;SDS011;10301;50.832;4.080;2023-06-14T03:22:54;11.88;;;8.52;;
20283;SDS011;10301;50.832;4.080;2023-06-14T03:25:21;14.60;;;8.55;;
20283;SDS011;10301;50.832;4.080;2023-06-14T03:27:47;14.15;;;8.93;;
20283;SDS011;10301;50.832;4.080;2023-06-14T03:30:13;11.27;;;8.38;;
20283;SDS011;10301;50.832;4.080;2023-06-14T03:32:38;17.40;;;8.50;;
20283;SDS011;10301;50.832;4.080;2023-06-14T03:35:04;15.98;;;8.85;;
20283;SDS011;10301;50.832;4.080;2023-06-14T03:37:31;12.13;;;8.55;;
20283;SDS011;10301;50.832;4.080;2023-06-14T03:39:56;14.02;;;9.27;;
20283;SDS011;10301;50.832;4.080;2023-06-14T03:42:22;15.93;;;9.07;;
20283;SDS011;10301;50.832;4.080;2023-06-14T03:44:48;14.45;;;9.23;;
20283;SDS011;10301;50.832;4.080;2023-06-14T03:47:13;15.43;;;8.85;;
20283;SDS011;10301;50.832;4.080;2023-06-14T03:49:40;14.32;;;9.93;;
20283;SDS011;10301;50.832;4.080;2023-06-14T03:52:05;16.10;;;9.95;;
20283;SDS011;10301;50.832;4.080;2023-06-14T03:54:31;15.20;;;9.80;;
20283;SDS011;10301;50.832;4.080;2023-06-14T03:56:58;16.38;;;9.68;;
20283;SDS011;10301;50.832;4.080;2023-06-14T03:59:24;12.98;;;9.52;;
20283;SDS011;10301;50.832;4.080;2023-06-14T04:01:50;14.00;;;10.10;;
20283;SDS011;10301;50.832;4.080;2023-06-14T04:04:16;12.60;;;9.52;;
20283;SDS011;10301;50.832;4.080;2023-06-14T04:06:43;17.98;;;9.20;;
20283;SDS011;10301;50.832;4.080;2023-06-14T04:09:09;16.27;;;10.32;;
20283;SDS011;10301;50.832;4.080;2023-06-14T04:11:34;17.13;;;9.50;;
20283;SDS011;10301;50.832;4.080;2023-06-14T04:14:01;13.98;;;10.13;;
20283;SDS011;10301;50.832;4.080;2023-06-14T04:16:27;20.02;;;8.68;;
20283;SDS011;10301;50.832;4.080;2023-06-14T04:18:54;12.73;;;9.45;;
20283;SDS011;10301;50.832;4.080;2023-06-14T04:21:20;15.27;;;9.15;;
20283;SDS011;10301;50.832;4.080;2023-06-14T04:23:46;16.58;;;9.45;;
20283;SDS011;10301;50.832;4.080;2023-06-14T04:26:11;14.23;;;8.68;;
20283;SDS011;10301;50.832;4.080;2023-06-14T04:28:37;13.27;;;8.20;;
20283;SDS011;10301;50.832;4.080;2023-06-14T04:31:08;12.23;;;8.93;;
20283;SDS011;10301;50.832;4.080;2023-06-14T04:33:35;14.18;;;8.70;;
20283;SDS011;10301;50.832;4.080;2023-06-14T04:36:11;12.52;;;8.68;;
20283;SDS011;10301;50.832;4.080;2023-06-14T04:38:37;16.70;;;9.30;;
20283;SDS011;10301;50.832;4.080;2023-06-14T04:41:03;14.88;;;9.45;;
20283;SDS011;10301;50.832;4.080;2023-06-14T04:43:29;14.27;;;8.93;;
20283;SDS011;10301;50.832;4.080;2023-06-14T04:45:54;12.18;;;7.95;;
20283;SDS011;10301;50.832;4.080;2023-06-14T04:48:21;15.60;;;8.63;;
20283;SDS011;10301;50.832;4.080;2023-06-14T04:50:48;14.60;;;9.10;;
20283;SDS011;10301;50.832;4.080;2023-06-14T04:53:18;12.80;;;8.05;;
20283;SDS011;10301;50.832;4.080;2023-06-14T04:55:47;13.38;;;8.57;;
20283;SDS011;10301;50.832;4.080;2023-06-14T04:58:13;14.15;;;8.57;;
20283;SDS011;10301;50.832;4.080;2023-06-14T05:00:39;13.55;;;8.65;;
20283;SDS011;10301;50.832;4.080;2023-06-14T05:03:07;13.82;;;9.00;;
20283;SDS011;10301;50.832;4.080;2023-06-14T05:05:33;15.27;;;9.90;;
20283;SDS011;10301;50.832;4.080;2023-06-14T05:07:59;14.30;;;8.90;;
20283;SDS011;10301;50.832;4.080;2023-06-14T05:10:25;13.93;;;8.70;;
20283;SDS011;10301;50.832;4.080;2023-06-14T05:12:51;11.95;;;8.65;;
20283;SDS011;10301;50.832;4.080;2023-06-14T05:15:17;16.13;;;9.07;;
20283;SDS011;10301;50.832;4.080;2023-06-14T05:17:45;13.30;;;8.70;;
20283;SDS011;10301;50.832;4.080;2023-06-14T05:20:18;15.95;;;9.00;;
20283;SDS011;10301;50.832;4.080;2023-06-14T05:22:43;13.13;;;8.77;;
20283;SDS011;10301;50.832;4.080;2023-06-14T05:25:09;18.27;;;9.73;;
20283;SDS011;10301;50.832;4.080;2023-06-14T05:27:35;16.55;;;9.43;;
20283;SDS011;10301;50.832;4.080;2023-06-14T05:30:02;11.88;;;8.57;;
20283;SDS011;10301;50.832;4.080;2023-06-14T05:32:29;16.42;;;8.93;;
20283;SDS011;10301;50.832;4.080;2023-06-14T05:34:55;15.68;;;8.85;;
20283;SDS011;10301;50.832;4.080;2023-06-14T05:37:20;16.95;;;9.35;;
20283;SDS011;10301;50.832;4.080;2023-06-14T05:39:46;17.45;;;9.40;;
20283;SDS011;10301;50.832;4.080;2023-06-14T05:42:11;20.48;;;9.45;;
20283;SDS011;10301;50.832;4.080;2023-06-14T05:44:37;13.68;;;9.23;;
20283;SDS011;10301;50.832;4.080;2023-06-14T05:47:03;16.90;;;9.00;;
20283;SDS011;10301;50.832;4.080;2023-06-14T05:49:29;14.60;;;9.15;;
20283;SDS011;10301;50.832;4.080;2023-06-14T05:51:54;19.38;;;9.05;;
20283;SDS011;10301;50.832;4.080;2023-06-14T05:54:20;16.80;;;8.88;;
20283;SDS011;10301;50.832;4.080;2023-06-14T05:56:46;15.00;;;9.00;;
20283;SDS011;10301;50.832;4.080;2023-06-14T05:59:11;13.35;;;9.02;;
20283;SDS011;10301;50.832;4.080;2023-06-14T06:01:37;15.40;;;9.60;;
20283;SDS011;10301;50.832;4.080;2023-06-14T06:04:05;11.68;;;8.63;;
20283;SDS011;10301;50.832;4.080;2023-06-14T06:06:31;14.52;;;8.85;;
20283;SDS011;10301;50.832;4.080;2023-06-14T06:08:57;15.45;;;9.73;;
20283;SDS011;10301;50.832;4.080;2023-06-14T06:11:23;14.60;;;9.27;;
20283;SDS011;10301;50.832;4.080;2023-06-14T06:13:48;13.65;;;9.07;;
20283;SDS011;10301;50.832;4.080;2023-06-14T06:16:14;16.17;;;8.95;;
20283;SDS011;10301;50.832;4.080;2023-06-14T06:18:40;13.80;;;8.73;;
20283;SDS011;10301;50.832;4.080;2023-06-14T06:21:06;11.43;;;8.45;;
20283;SDS011;10301;50.832;4.080;2023-06-14T06:23:31;14.35;;;9.45;;
20283;SDS011;10301;50.832;4.080;2023-06-14T06:25:57;18.48;;;8.95;;
20283;SDS011;10301;50.832;4.080;2023-06-14T06:28:23;14.48;;;8.95;;
20283;SDS011;10301;50.832;4.080;2023-06-14T06:30:48;14.60;;;8.70;;
20283;SDS011;10301;50.832;4.080;2023-06-14T06:33:15;18.95;;;9.25;;
20283;SDS011;10301;50.832;4.080;2023-06-14T06:35:41;12.52;;;8.80;;
20283;SDS011;10301;50.832;4.080;2023-06-14T06:38:07;12.90;;;8.35;;
20283;SDS011;10301;50.832;4.080;2023-06-14T06:40:35;14.95;;;8.85;;
20283;SDS011;10301;50.832;4.080;2023-06-14T06:43:01;15.52;;;9.23;;
20283;SDS011;10301;50.832;4.080;2023-06-14T06:45:28;15.98;;;8.93;;
20283;SDS011;10301;50.832;4.080;2023-06-14T06:47:53;15.70;;;8.90;;
20283;SDS011;10301;50.832;4.080;2023-06-14T06:50:20;15.77;;;8.68;;
20283;SDS011;10301;50.832;4.080;2023-06-14T06:52:48;13.02;;;8.48;;
20283;SDS011;10301;50.832;4.080;2023-06-14T06:55:14;14.63;;;9.32;;
20283;SDS011;10301;50.832;4.080;2023-06-14T06:57:40;15.50;;;8.80;;
20283;SDS011;10301;50.832;4.080;2023-06-14T07:00:06;13.18;;;8.90;;
20283;SDS011;10301;50.832;4.080;2023-06-14T07:02:35;12.85;;;8.27;;
20283;SDS011;10301;50.832;4.080;2023-06-14T07:05:01;15.95;;;8.23;;
20283;SDS011;10301;50.832;4.080;2023-06-14T07:07:27;18.73;;;9.00;;
20283;SDS011;10301;50.832;4.080;2023-06-14T07:09:53;11.50;;;7.78;;
20283;SDS011;10301;50.832;4.080;2023-06-14T07:12:19;18.70;;;8.57;;
20283;SDS011;10301;50.832;4.080;2023-06-14T07:14:44;17.90;;;8.07;;
20283;SDS011;10301;50.832;4.080;2023-06-14T07:17:10;13.70;;;8.80;;
20283;SDS011;10301;50.832;4.080;2023-06-14T07:19:36;14.07;;;8.07;;
20283;SDS011;10301;50.832;4.080;2023-06-14T07:22:01;13.55;;;7.60;;
20283;SDS011;10301;50.832;4.080;2023-06-14T07:24:27;12.50;;;7.78;;
20283;SDS011;10301;50.832;4.080;2023-06-14T07:26:53;13.38;;;7.75;;
20283;SDS011;10301;50.832;4.080;2023-06-14T07:29:19;15.07;;;7.93;;
20283;SDS011;10301;50.832;4.080;2023-06-14T07:31:46;14.10;;;7.72;;
20283;SDS011;10301;50.832;4.080;2023-06-14T07:34:12;13.05;;;7.30;;
20283;SDS011;10301;50.832;4.080;2023-06-14T07:36:38;13.55;;;7.53;;
20283;SDS011;10301;50.832;4.080;2023-06-14T07:39:04;13.20;;;7.55;;
20283;SDS011;10301;50.832;4.080;2023-06-14T07:41:31;14.55;;;6.93;;
20283;SDS011;10301;50.832;4.080;2023-06-14T07:43:57;12.18;;;6.97;;
20283;SDS011;10301;50.832;4.080;2023-06-14T07:46:23;12.95;;;7.43;;
20283;SDS011;10301;50.832;4.080;2023-06-14T07:48:49;12.82;;;7.10;;
20283;SDS011;10301;50.832;4.080;2023-06-14T07:51:14;13.85;;;7.43;;
20283;SDS011;10301;50.832;4.080;2023-06-14T07:53:40;14.27;;;7.47;;
20283;SDS011;10301;50.832;4.080;2023-06-14T07:56:07;13.50;;;7.82;;
20283;SDS011;10301;50.832;4.080;2023-06-14T07:58:32;13.25;;;7.70;;
20283;SDS011;10301;50.832;4.080;2023-06-14T08:00:58;16.38;;;8.13;;
20283;SDS011;10301;50.832;4.080;2023-06-14T08:03:26;15.48;;;6.72;;
20283;SDS011;10301;50.832;4.080;2023-06-14T08:05:52;14.05;;;7.40;;
20283;SDS011;10301;50.832;4.080;2023-06-14T08:08:17;12.20;;;6.82;;
20283;SDS011;10301;50.832;4.080;2023-06-14T08:10:43;13.48;;;6.80;;
20283;SDS011;10301;50.832;4.080;2023-06-14T08:13:09;12.98;;;6.35;;
20283;SDS011;10301;50.832;4.080;2023-06-14T08:15:35;10.35;;;5.60;;
20283;SDS011;10301;50.832;4.080;2023-06-14T08:18:01;10.93;;;6.25;;
20283;SDS011;10301;50.832;4.080;2023-06-14T08:20:27;9.43;;;5.72;;
20283;SDS011;10301;50.832;4.080;2023-06-14T08:22:52;9.48;;;6.07;;
20283;SDS011;10301;50.832;4.080;2023-06-14T08:25:21;11.32;;;5.90;;
20283;SDS011;10301;50.832;4.080;2023-06-14T08:27:48;11.55;;;6.18;;
20283;SDS011;10301;50.832;4.080;2023-06-14T08:30:14;12.35;;;5.80;;
20283;SDS011;10301;50.832;4.080;2023-06-14T08:32:40;9.32;;;5.97;;
20283;SDS011;10301;50.832;4.080;2023-06-14T08:35:05;12.07;;;6.40;;
20283;SDS011;10301;50.832;4.080;2023-06-14T08:37:32;10.43;;;6.13;;
20283;SDS011;10301;50.832;4.080;2023-06-14T08:40:00;12.05;;;6.22;;
20283;SDS011;10301;50.832;4.080;2023-06-14T08:42:26;10.50;;;5.85;;
20283;SDS011;10301;50.832;4.080;2023-06-14T08:44:51;12.85;;;6.47;;
20283;SDS011;10301;50.832;4.080;2023-06-14T08:47:17;14.52;;;6.35;;
20283;SDS011;10301;50.832;4.080;2023-06-14T08:49:45;10.82;;;6.18;;
20283;SDS011;10301;50.832;4.080;2023-06-14T08:52:12;14.55;;;6.15;;
20283;SDS011;10301;50.832;4.080;2023-06-14T08:54:43;12.13;;;5.93;;
20283;SDS011;10301;50.832;4.080;2023-06-14T08:57:11;12.15;;;6.18;;
20283;SDS011;10301;50.832;4.080;2023-06-14T08:59:41;9.93;;;5.80;;
20283;SDS011;10301;50.832;4.080;2023-06-14T09:02:14;9.32;;;6.20;;
20283;SDS011;10301;50.832;4.080;2023-06-14T09:04:43;9.68;;;5.63;;
20283;SDS011;10301;50.832;4.080;2023-06-14T09:07:09;10.32;;;6.00;;
20283;SDS011;10301;50.832;4.080;2023-06-14T09:09:39;9.68;;;5.47;;
20283;SDS011;10301;50.832;4.080;2023-06-14T09:12:07;11.23;;;5.55;;
20283;SDS011;10301;50.832;4.080;2023-06-14T09:14:36;11.02;;;5.50;;
20283;SDS011;10301;50.832;4.080;2023-06-14T09:17:04;8.60;;;5.68;;
20283;SDS011;10301;50.832;4.080;2023-06-14T09:19:30;8.38;;;5.55;;
20283;SDS011;10301;50.832;4.080;2023-06-14T09:21:56;11.48;;;5.78;;
20283;SDS011;10301;50.832;4.080;2023-06-14T09:24:23;9.90;;;5.68;;
20283;SDS011;10301;50.832;4.080;2023-06-14T09:26:50;9.30;;;6.68;;
20283;SDS011;10301;50.832;4.080;2023-06-14T09:29:16;13.35;;;6.30;;
20283;SDS011;10301;50.832;4.080;2023-06-14T09:31:43;10.70;;;5.85;;
20283;SDS011;10301;50.832;4.080;2023-06-14T09:34:10;8.27;;;6.18;;
20283;SDS011;10301;50.832;4.080;2023-06-14T09:36:36;10.77;;;6.15;;
20283;SDS011;10301;50.832;4.080;2023-06-14T09:39:05;11.70;;;5.93;;
20283;SDS011;10301;50.832;4.080;2023-06-14T09:43:59;9.70;;;5.95;;
20283;SDS011;10301;50.832;4.080;2023-06-14T09:46:28;12.73;;;6.43;;
20283;SDS011;10301;50.832;4.080;2023-06-14T09:48:57;10.70;;;6.15;;
20283;SDS011;10301;50.832;4.080;2023-06-14T09:51:23;13.35;;;5.57;;
20283;SDS011;10301;50.832;4.080;2023-06-14T09:53:49;9.77;;;5.95;;
20283;SDS011;10301;50.832;4.080;2023-06-14T09:56:21;12.13;;;6.20;;
20283;SDS011;10301;50.832;4.080;2023-06-14T09:58:54;9.35;;;5.63;;
20283;SDS011;10301;50.832;4.080;2023-06-14T10:01:21;10.35;;;6.25;;
20283;SDS011;10301;50.832;4.080;2023-06-14T10:03:50;8.50;;;6.15;;
20283;SDS011;10301;50.832;4.080;2023-06-14T10:06:29;13.50;;;6.28;;
20283;SDS011;10301;50.832;4.080;2023-06-14T10:08:59;14.57;;;6.28;;
20283;SDS011;10301;50.832;4.080;2023-06-14T10:11:28;12.00;;;6.15;;
20283;SDS011;10301;50.832;4.080;2023-06-14T10:13:54;14.30;;;6.32;;
20283;SDS011;10301;50.832;4.080;2023-06-14T10:16:31;12.93;;;6.40;;
20283;SDS011;10301;50.832;4.080;2023-06-14T10:19:18;15.00;;;6.22;;
20283;SDS011;10301;50.832;4.080;2023-06-14T10:24:23;14.00;;;6.15;;
20283;SDS011;10301;50.832;4.080;2023-06-14T10:26:57;9.88;;;5.65;;
20283;SDS011;10301;50.832;4.080;2023-06-14T10:29:24;9.00;;;5.50;;
20283;SDS011;10301;50.832;4.080;2023-06-14T10:31:55;7.88;;;5.43;;
20283;SDS011;10301;50.832;4.080;2023-06-14T10:34:23;10.27;;;5.93;;
20283;SDS011;10301;50.832;4.080;2023-06-14T10:37:06;8.43;;;5.88;;
20283;SDS011;10301;50.832;4.080;2023-06-14T10:39:42;13.05;;;5.88;;
20283;SDS011;10301;50.832;4.080;2023-06-14T10:42:12;12.23;;;6.00;;
20283;SDS011;10301;50.832;4.080;2023-06-14T10:44:55;8.88;;;5.78;;
20283;SDS011;10301;50.832;4.080;2023-06-14T10:50:07;12.30;;;6.00;;
20283;SDS011;10301;50.832;4.080;2023-06-14T10:52:37;10.55;;;5.95;;
20283;SDS011;10301;50.832;4.080;2023-06-14T10:55:11;7.78;;;5.63;;
20283;SDS011;10301;50.832;4.080;2023-06-14T10:57:44;10.02;;;6.45;;
20283;SDS011;10301;50.832;4.080;2023-06-14T11:00:11;11.27;;;6.18;;
20283;SDS011;10301;50.832;4.080;2023-06-14T11:02:56;10.73;;;6.05;;
20283;SDS011;10301;50.832;4.080;2023-06-14T11:11:07;10.65;;;6.65;;
20283;SDS011;10301;50.832;4.080;2023-06-14T11:13:34;11.88;;;6.13;;
20283;SDS011;10301;50.832;4.080;2023-06-14T11:16:03;9.95;;;6.43;;
20283;SDS011;10301;50.832;4.080;2023-06-14T11:18:38;12.18;;;6.30;;
20283;SDS011;10301;50.832;4.080;2023-06-14T11:21:04;9.88;;;5.88;;
20283;SDS011;10301;50.832;4.080;2023-06-14T11:23:30;9.80;;;6.07;;
20283;SDS011;10301;50.832;4.080;2023-06-14T11:25:56;8.55;;;5.40;;
20283;SDS011;10301;50.832;4.080;2023-06-14T11:28:21;8.40;;;5.40;;
20283;SDS011;10301;50.832;4.080;2023-06-14T11:30:49;9.80;;;5.78;;
20283;SDS011;10301;50.832;4.080;2023-06-14T11:33:24;9.27;;;6.07;;
20283;SDS011;10301;50.832;4.080;2023-06-14T11:35:50;8.02;;;4.95;;
20283;SDS011;10301;50.832;4.080;2023-06-14T11:38:17;9.13;;;6.03;;
20283;SDS011;10301;50.832;4.080;2023-06-14T11:40:43;10.13;;;5.53;;
20283;SDS011;10301;50.832;4.080;2023-06-14T11:43:08;10.73;;;5.65;;
20283;SDS011;10301;50.832;4.080;2023-06-14T11:45:35;7.40;;;4.95;;
20283;SDS011;10301;50.832;4.080;2023-06-14T11:48:00;10.77;;;5.72;;
20283;SDS011;10301;50.832;4.080;2023-06-14T11:50:27;9.70;;;5.15;;
20283;SDS011;10301;50.832;4.080;2023-06-14T11:52:57;10.43;;;5.55;;
20283;SDS011;10301;50.832;4.080;2023-06-14T11:55:32;9.20;;;5.45;;
20283;SDS011;10301;50.832;4.080;2023-06-14T11:58:01;9.48;;;5.47;;
20283;SDS011;10301;50.832;4.080;2023-06-14T12:00:27;8.40;;;5.88;;
20283;SDS011;10301;50.832;4.080;2023-06-14T12:02:54;10.23;;;5.95;;
20283;SDS011;10301;50.832;4.080;2023-06-14T12:05:23;10.82;;;5.45;;
20283;SDS011;10301;50.832;4.080;2023-06-14T12:07:49;11.00;;;5.68;;
20283;SDS011;10301;50.832;4.080;2023-06-14T12:10:18;9.68;;;5.60;;
20283;SDS011;10301;50.832;4.080;2023-06-14T12:12:44;10.40;;;5.70;;
20283;SDS011;10301;50.832;4.080;2023-06-14T12:15:10;9.30;;;5.60;;
20283;SDS011;10301;50.832;4.080;2023-06-14T12:17:37;12.52;;;5.90;;
20283;SDS011;10301;50.832;4.080;2023-06-14T12:20:07;11.57;;;5.72;;
20283;SDS011;10301;50.832;4.080;2023-06-14T12:22:51;10.48;;;5.05;;
20283;SDS011;10301;50.832;4.080;2023-06-14T12:25:27;8.45;;;4.97;;
20283;SDS011;10301;50.832;4.080;2023-06-14T12:27:57;7.53;;;4.75;;
20283;SDS011;10301;50.832;4.080;2023-06-14T12:30:23;9.52;;;5.07;;
20283;SDS011;10301;50.832;4.080;2023-06-14T12:32:49;11.90;;;5.45;;
20283;SDS011;10301;50.832;4.080;2023-06-14T12:35:16;9.85;;;4.93;;
20283;SDS011;10301;50.832;4.080;2023-06-14T12:37:43;13.30;;;5.63;;
20283;SDS011;10301;50.832;4.080;2023-06-14T12:40:09;9.98;;;5.07;;
20283;SDS011;10301;50.832;4.080;2023-06-14T12:42:36;9.18;;;5.30;;
20283;SDS011;10301;50.832;4.080;2023-06-14T12:45:02;8.70;;;5.03;;
20283;SDS011;10301;50.832;4.080;2023-06-14T12:47:28;12.55;;;5.25;;
20283;SDS011;10301;50.832;4.080;2023-06-14T12:49:53;8.40;;;4.85;;
20283;SDS011;10301;50.832;4.080;2023-06-14T12:52:19;11.13;;;5.40;;
20283;SDS011;10301;50.832;4.080;2023-06-14T12:54:44;9.80;;;5.43;;
20283;SDS011;10301;50.832;4.080;2023-06-14T12:57:10;8.60;;;4.88;;
20283;SDS011;10301;50.832;4.080;2023-06-14T12:59:36;13.88;;;5.25;;
20283;SDS011;10301;50.832;4.080;2023-06-14T13:02:15;9.32;;;5.60;;
20283;SDS011;10301;50.832;4.080;2023-06-14T13:04:42;11.10;;;4.93;;
20283;SDS011;10301;50.832;4.080;2023-06-14T13:07:08;7.97;;;4.88;;
20283;SDS011;10301;50.832;4.080;2023-06-14T13:09:35;12.75;;;5.32;;
20283;SDS011;10301;50.832;4.080;2023-06-14T13:12:01;10.20;;;5.25;;
20283;SDS011;10301;50.832;4.080;2023-06-14T13:14:27;10.52;;;5.63;;
20283;SDS011;10301;50.832;4.080;2023-06-14T13:16:52;7.18;;;4.90;;
20283;SDS011;10301;50.832;4.080;2023-06-14T13:19:18;9.82;;;5.28;;
20283;SDS011;10301;50.832;4.080;2023-06-14T13:21:44;6.97;;;4.38;;
20283;SDS011;10301;50.832;4.080;2023-06-14T13:24:09;12.05;;;4.97;;
20283;SDS011;10301;50.832;4.080;2023-06-14T13:26:35;11.13;;;5.13;;
20283;SDS011;10301;50.832;4.080;2023-06-14T13:29:01;9.68;;;5.43;;
20283;SDS011;10301;50.832;4.080;2023-06-14T13:31:26;10.13;;;5.07;;
20283;SDS011;10301;50.832;4.080;2023-06-14T13:33:52;9.10;;;5.40;;
20283;SDS011;10301;50.832;4.080;2023-06-14T13:36:18;8.98;;;4.80;;
20283;SDS011;10301;50.832;4.080;2023-06-14T13:38:44;9.48;;;5.65;;
20283;SDS011;10301;50.832;4.080;2023-06-14T13:41:09;10.98;;;4.40;;
20283;SDS011;10301;50.832;4.080;2023-06-14T13:43:35;11.43;;;5.07;;
20283;SDS011;10301;50.832;4.080;2023-06-14T13:46:01;9.38;;;4.63;;
20283;SDS011;10301;50.832;4.080;2023-06-14T13:48:26;9.75;;;4.70;;
20283;SDS011;10301;50.832;4.080;2023-06-14T13:50:52;8.95;;;4.47;;
20283;SDS011;10301;50.832;4.080;2023-06-14T13:53:18;12.32;;;4.22;;
20283;SDS011;10301;50.832;4.080;2023-06-14T13:55:43;10.32;;;4.80;;
20283;SDS011;10301;50.832;4.080;2023-06-14T13:58:10;9.85;;;4.60;;
20283;SDS011;10301;50.832;4.080;2023-06-14T14:00:35;8.73;;;4.32;;
20283;SDS011;10301;50.832;4.080;2023-06-14T14:03:05;10.10;;;4.45;;
20283;SDS011;10301;50.832;4.080;2023-06-14T14:05:31;8.32;;;4.53;;
20283;SDS011;10301;50.832;4.080;2023-06-14T14:07:57;9.57;;;4.43;;
20283;SDS011;10301;50.832;4.080;2023-06-14T14:10:24;8.23;;;4.65;;
20283;SDS011;10301;50.832;4.080;2023-06-14T14:12:50;11.90;;;4.07;;
20283;SDS011;10301;50.832;4.080;2023-06-14T14:15:16;7.38;;;3.70;;
20283;SDS011;10301;50.832;4.080;2023-06-14T14:17:42;9.82;;;4.05;;
20283;SDS011;10301;50.832;4.080;2023-06-14T14:20:08;9.38;;;3.88;;
20283;SDS011;10301;50.832;4.080;2023-06-14T14:22:36;9.02;;;3.85;;
20283;SDS011;10301;50.832;4.080;2023-06-14T14:25:02;9.23;;;4.00;;
20283;SDS011;10301;50.832;4.080;2023-06-14T14:27:28;7.40;;;4.18;;
20283;SDS011;10301;50.832;4.080;2023-06-14T14:29:53;6.15;;;3.92;;
20283;SDS011;10301;50.832;4.080;2023-06-14T14:32:19;8.70;;;3.78;;
20283;SDS011;10301;50.832;4.080;2023-06-14T14:34:45;8.38;;;3.80;;
20283;SDS011;10301;50.832;4.080;2023-06-14T14:37:10;9.85;;;3.95;;
20283;SDS011;10301;50.832;4.080;2023-06-14T14:39:36;9.52;;;3.95;;
20283;SDS011;10301;50.832;4.080;2023-06-14T14:42:02;6.43;;;3.63;;
20283;SDS011;10301;50.832;4.080;2023-06-14T14:44:28;9.50;;;3.60;;
20283;SDS011;10301;50.832;4.080;2023-06-14T14:46:54;7.25;;;3.50;;
20283;SDS011;10301;50.832;4.080;2023-06-14T14:49:19;6.78;;;3.20;;
20283;SDS011;10301;50.832;4.080;2023-06-14T14:51:45;10.30;;;3.85;;
20283;SDS011;10301;50.832;4.080;2023-06-14T14:54:11;6.95;;;3.60;;
20283;SDS011;10301;50.832;4.080;2023-06-14T14:56:36;9.05;;;3.70;;